createdAt,value
2023-03-18T00:01:04.120Z,43.17
2023-03-18T00:03:06.701Z,50.13
2023-03-18T00:05:09.639Z,50.03
2023-03-18T00:07:12.073Z,45.50
2023-03-18T00:09:14.484Z,31.92
2023-03-18T00:11:18.696Z,37.80
2023-03-18T00:13:20.425Z,26.20
2023-03-18T00:15:22.046Z,24.35
2023-03-18T00:17:23.944Z,22.20
2023-03-18T00:19:25.765Z,27.88
2023-03-18T00:21:28.147Z,29.65
2023-03-18T00:23:30.493Z,24.40
2023-03-18T00:25:32.881Z,25.48
2023-03-18T00:27:35.894Z,31.60
2023-03-18T00:29:37.816Z,27.60
2023-03-18T00:31:40.275Z,18.48
2023-03-18T00:33:46.022Z,22.35
2023-03-18T00:35:48.193Z,20.75
2023-03-18T00:37:49.904Z,24.85
2023-03-18T00:39:52.185Z,22.10
2023-03-18T00:41:57.295Z,20.45
2023-03-18T00:43:58.987Z,20.05
2023-03-18T00:46:01.130Z,23.38
2023-03-18T00:48:02.667Z,23.15
2023-03-18T00:50:06.229Z,20.42
2023-03-18T00:52:08.588Z,18.63
2023-03-18T00:54:13.641Z,24.33
2023-03-18T00:56:18.877Z,18.92
2023-03-18T00:58:20.371Z,22.20
2023-03-18T01:00:22.412Z,25.30
2023-03-18T01:02:24.939Z,19.00
2023-03-18T01:04:28.069Z,18.75
2023-03-18T01:06:32.541Z,20.52
2023-03-18T01:08:34.043Z,20.90
2023-03-18T01:10:35.638Z,20.83
2023-03-18T01:12:37.989Z,22.15
2023-03-18T01:14:41.681Z,20.90
2023-03-18T01:16:43.320Z,23.02
2023-03-18T01:18:45.645Z,23.98
2023-03-18T01:20:47.240Z,24.42
2023-03-18T01:22:49.018Z,22.70
2023-03-18T01:24:50.616Z,21.00
2023-03-18T01:26:52.235Z,21.25
2023-03-18T01:28:53.767Z,22.27
2023-03-18T01:30:55.921Z,21.73
2023-03-18T01:32:58.131Z,19.95
2023-03-18T01:35:00.122Z,22.73
2023-03-18T01:37:02.459Z,21.05
2023-03-18T01:39:06.371Z,18.35
2023-03-18T01:41:08.231Z,20.70
2023-03-18T01:43:28.198Z,20.85
2023-03-18T01:45:31.747Z,16.30
2023-03-18T01:47:33.464Z,33.72
2023-03-18T01:49:38.969Z,43.15
2023-03-18T01:51:43.572Z,24.30
2023-03-18T01:53:48.731Z,25.27
2023-03-18T01:55:52.202Z,27.00
2023-03-18T01:57:54.601Z,32.70
2023-03-18T01:59:57.519Z,41.70
2023-03-18T02:02:06.708Z,37.22
2023-03-18T02:04:10.565Z,27.83
2023-03-18T02:06:12.522Z,31.08
2023-03-18T02:08:14.104Z,28.15
2023-03-18T02:10:18.424Z,30.92
2023-03-18T02:12:30.175Z,39.85
2023-03-18T02:14:32.411Z,38.80
2023-03-18T02:16:41.728Z,35.92
2023-03-18T02:18:48.365Z,24.05
2023-03-18T02:21:08.485Z,26.83
2023-03-18T02:23:36.750Z,23.02
2023-03-18T02:25:44.067Z,16.98
2023-03-18T02:27:50.957Z,24.75
2023-03-18T02:29:57.011Z,22.73
2023-03-18T02:32:01.457Z,20.98
2023-03-18T02:34:05.647Z,18.27
2023-03-18T02:36:13.538Z,19.13
2023-03-18T02:38:15.108Z,22.42
2023-03-18T02:40:23.600Z,17.48
2023-03-18T02:42:30.656Z,19.27
2023-03-18T02:44:33.400Z,14.40
2023-03-18T02:46:37.656Z,15.40
2023-03-18T02:48:43.355Z,17.55
2023-03-18T02:50:45.609Z,15.25
2023-03-18T02:52:47.499Z,13.95
2023-03-18T02:54:49.099Z,14.80
2023-03-18T02:56:50.978Z,13.88
2023-03-18T02:58:53.139Z,18.70
2023-03-18T03:00:55.007Z,20.95
2023-03-18T03:02:57.066Z,25.27
2023-03-18T03:04:58.660Z,16.20
2023-03-18T03:07:01.577Z,14.02
2023-03-18T03:09:05.401Z,21.27
2023-03-18T03:11:08.565Z,22.05
2023-03-18T03:13:10.257Z,20.27
2023-03-18T03:15:11.981Z,18.10
2023-03-18T03:17:13.589Z,14.40
2023-03-18T03:19:15.780Z,21.40
2023-03-18T03:21:17.429Z,24.15
2023-03-18T03:23:18.974Z,19.50
2023-03-18T03:25:20.755Z,16.98
2023-03-18T03:27:22.645Z,20.30
2023-03-18T03:29:24.468Z,17.80
2023-03-18T03:31:27.455Z,17.52
2023-03-18T03:33:29.332Z,14.40
2023-03-18T03:35:31.946Z,16.85
2023-03-18T03:37:33.525Z,22.55
2023-03-18T03:39:35.131Z,23.35
2023-03-18T03:41:36.677Z,21.90
2023-03-18T03:43:40.427Z,20.63
2023-03-18T03:45:43.799Z,18.50
2023-03-18T03:47:49.218Z,20.60
2023-03-18T03:49:50.713Z,18.73
2023-03-18T03:51:52.246Z,19.58
2023-03-18T03:53:54.176Z,19.13
2023-03-18T03:55:58.944Z,16.33
2023-03-18T03:58:01.188Z,17.15
2023-03-18T04:00:07.388Z,18.55
2023-03-18T04:02:08.968Z,16.63
2023-03-18T04:04:10.943Z,16.88
2023-03-18T04:06:13.342Z,15.20
2023-03-18T04:08:14.913Z,14.65
2023-03-18T04:10:18.552Z,18.15
2023-03-18T04:12:20.323Z,22.80
2023-03-18T04:14:21.951Z,18.48
2023-03-18T04:16:23.555Z,20.33
2023-03-18T04:18:26.055Z,20.95
2023-03-18T04:20:27.604Z,17.48
2023-03-18T04:22:29.729Z,16.33
2023-03-18T04:24:31.607Z,15.90
2023-03-18T04:26:33.214Z,15.60
2023-03-18T04:28:35.250Z,14.48
2023-03-18T04:30:37.290Z,15.60
2023-03-18T04:32:38.920Z,13.40
2023-03-18T04:34:40.719Z,15.75
2023-03-18T04:36:42.261Z,15.85
2023-03-18T04:38:44.591Z,10.75
2023-03-18T04:40:46.368Z,17.73
2023-03-18T04:42:48.025Z,13.55
2023-03-18T04:44:49.594Z,17.83
2023-03-18T04:46:53.618Z,17.77
2023-03-18T04:48:55.262Z,15.23
2023-03-18T04:50:56.798Z,17.77
2023-03-18T04:52:58.555Z,14.77
2023-03-18T04:55:00.453Z,21.92
2023-03-18T04:57:02.433Z,19.45
2023-03-18T04:59:03.954Z,17.13
2023-03-18T05:01:05.547Z,20.38
2023-03-18T05:03:07.421Z,19.25
2023-03-18T05:05:09.762Z,21.95
2023-03-18T05:07:18.321Z,20.20
2023-03-18T05:09:19.907Z,15.85
2023-03-18T05:11:21.707Z,14.43
2023-03-18T05:13:24.149Z,16.35
2023-03-18T05:15:26.052Z,21.63
2023-03-18T05:17:28.780Z,26.35
2023-03-18T05:19:30.660Z,35.88
2023-03-18T05:21:32.210Z,29.65
2023-03-18T05:23:34.304Z,18.13
2023-03-18T05:25:36.202Z,19.88
2023-03-18T05:27:38.583Z,19.75
2023-03-18T05:29:41.897Z,24.48
2023-03-18T05:31:43.862Z,24.73
2023-03-18T05:33:51.410Z,22.00
2023-03-18T05:35:53.720Z,17.35
2023-03-18T05:37:55.504Z,20.10
2023-03-18T05:39:57.292Z,19.23
2023-03-18T05:41:59.726Z,20.58
2023-03-18T05:44:01.483Z,16.60
2023-03-18T05:46:05.628Z,22.75
2023-03-18T05:48:07.175Z,16.67
2023-03-18T05:50:10.706Z,17.85
2023-03-18T05:52:12.379Z,20.17
2023-03-18T05:54:14.253Z,17.55
2023-03-18T05:56:25.713Z,17.42
2023-03-18T05:58:31.691Z,56.80
2023-03-18T06:00:33.296Z,48.00
2023-03-18T06:02:34.773Z,36.72
2023-03-18T06:04:37.202Z,19.25
2023-03-18T06:06:40.587Z,25.30
2023-03-18T06:08:42.804Z,16.98
2023-03-18T06:10:44.363Z,12.95
2023-03-18T06:12:45.995Z,13.60
2023-03-18T06:14:47.542Z,17.60
2023-03-18T06:16:49.115Z,26.80
2023-03-18T06:18:51.017Z,14.05
2023-03-18T06:20:52.596Z,33.78
2023-03-18T06:22:54.364Z,23.20
2023-03-18T06:24:56.572Z,43.80
2023-03-18T06:26:58.257Z,27.67
2023-03-18T06:29:00.088Z,27.25
2023-03-18T06:31:02.917Z,21.60
2023-03-18T06:33:04.849Z,16.27
2023-03-18T06:35:07.100Z,16.40
2023-03-18T06:37:09.721Z,16.13
2023-03-18T06:39:11.264Z,15.98
2023-03-18T06:41:14.520Z,14.93
2023-03-18T06:43:16.121Z,9.07
2023-03-18T06:45:17.936Z,11.40
2023-03-18T06:47:22.007Z,15.90
2023-03-18T06:49:23.997Z,17.20
2023-03-18T06:51:25.800Z,17.92
2023-03-18T06:53:28.192Z,25.05
2023-03-18T06:55:29.721Z,37.60
2023-03-18T06:57:31.361Z,44.42
2023-03-18T06:59:33.118Z,50.65
2023-03-18T07:01:36.206Z,26.05
2023-03-18T07:03:38.924Z,21.30
2023-03-18T07:05:42.180Z,12.18
2023-03-18T07:07:44.244Z,24.38
2023-03-18T07:09:45.775Z,29.02
2023-03-18T07:11:47.541Z,22.48
2023-03-18T07:13:49.137Z,21.45
2023-03-18T07:15:51.052Z,18.98
2023-03-18T07:17:53.265Z,18.75
2023-03-18T07:19:54.802Z,17.60
2023-03-18T07:21:57.110Z,22.77
2023-03-18T07:23:58.830Z,16.05
2023-03-18T07:26:00.337Z,20.73
2023-03-18T07:28:01.944Z,16.95
2023-03-18T07:30:04.214Z,20.77
2023-03-18T07:32:06.362Z,23.13
2023-03-18T07:34:12.990Z,32.03
2023-03-18T07:36:15.368Z,30.05
2023-03-18T07:38:18.267Z,38.92
2023-03-18T07:40:19.954Z,16.15
2023-03-18T07:42:21.636Z,14.88
2023-03-18T07:44:23.942Z,14.27
2023-03-18T07:46:25.968Z,16.13
2023-03-18T07:48:27.535Z,14.65
2023-03-18T07:50:29.197Z,15.73
2023-03-18T07:52:31.159Z,16.45
2023-03-18T07:54:32.872Z,12.63
2023-03-18T07:56:34.772Z,14.52
2023-03-18T07:58:37.326Z,16.17
2023-03-18T08:00:38.961Z,17.23
2023-03-18T08:02:41.424Z,18.30
2023-03-18T08:04:44.177Z,18.50
2023-03-18T08:06:45.748Z,19.60
2023-03-18T08:08:47.264Z,13.10
2023-03-18T08:10:48.816Z,14.20
2023-03-18T08:12:53.409Z,13.05
2023-03-18T08:14:55.420Z,14.00
2023-03-18T08:16:58.370Z,28.85
2023-03-18T08:19:00.230Z,21.83
2023-03-18T08:21:01.898Z,16.17
2023-03-18T08:23:03.684Z,14.48
2023-03-18T08:25:05.614Z,14.05
2023-03-18T08:27:10.233Z,14.77
2023-03-18T08:29:11.802Z,13.57
2023-03-18T08:31:14.406Z,12.00
2023-03-18T08:33:16.073Z,20.08
2023-03-18T08:35:18.385Z,19.20
2023-03-18T08:37:20.630Z,14.50
2023-03-18T08:39:22.751Z,13.80
2023-03-18T08:41:25.737Z,19.52
2023-03-18T08:43:27.290Z,15.60
2023-03-18T08:45:28.779Z,18.88
2023-03-18T08:47:30.958Z,12.70
2023-03-18T08:49:32.831Z,15.07
2023-03-18T08:51:34.718Z,14.23
2023-03-18T08:53:37.336Z,13.68
2023-03-18T08:55:39.440Z,14.10
2023-03-18T08:57:41.096Z,13.93
2023-03-18T08:59:42.710Z,16.08
2023-03-18T09:01:44.247Z,17.10
2023-03-18T09:03:46.998Z,14.32
2023-03-18T09:05:49.337Z,13.60
2023-03-18T09:07:53.266Z,24.65
2023-03-18T09:09:57.888Z,17.77
2023-03-18T09:11:59.406Z,20.17
2023-03-18T09:14:01.200Z,19.63
2023-03-18T09:16:02.731Z,17.58
2023-03-18T09:18:11.551Z,15.25
2023-03-18T09:20:15.725Z,13.48
2023-03-18T09:22:26.531Z,16.38
2023-03-18T09:24:28.094Z,16.90
2023-03-18T09:26:29.662Z,18.60
2023-03-18T09:28:31.309Z,13.60
2023-03-18T09:30:33.814Z,16.38
2023-03-18T09:32:35.489Z,12.98
2023-03-18T09:34:37.647Z,15.93
2023-03-18T09:36:39.902Z,14.65
2023-03-18T09:38:42.579Z,14.38
2023-03-18T09:40:56.072Z,15.88
2023-03-18T09:43:46.561Z,14.32
2023-03-18T09:46:13.360Z,12.40
2023-03-18T09:48:45.987Z,12.38
2023-03-18T09:50:55.909Z,14.40
2023-03-18T09:55:25.724Z,14.20
2023-03-18T09:57:32.159Z,16.25
2023-03-18T09:59:45.186Z,14.43
2023-03-18T10:01:50.998Z,22.83
2023-03-18T10:04:23.355Z,18.55
2023-03-18T10:06:25.274Z,14.95
2023-03-18T10:08:54.878Z,12.55
2023-03-18T10:11:02.421Z,16.73
2023-03-18T10:13:33.656Z,13.15
2023-03-18T10:15:41.561Z,12.68
2023-03-18T10:18:11.869Z,14.45
2023-03-18T10:20:32.455Z,14.05
2023-03-18T10:22:54.926Z,14.07
2023-03-18T10:24:59.368Z,12.60
2023-03-18T10:27:16.348Z,13.73
2023-03-18T10:29:42.049Z,14.38
2023-03-18T10:31:59.013Z,23.33
2023-03-18T10:34:26.646Z,17.05
2023-03-18T10:36:33.925Z,12.25
2023-03-18T10:38:39.691Z,11.48
2023-03-18T10:40:42.976Z,15.90
2023-03-18T10:42:45.826Z,14.85
2023-03-18T10:44:48.104Z,14.52
2023-03-18T10:46:57.936Z,12.93
2023-03-18T10:52:00.303Z,13.40
2023-03-18T10:54:42.174Z,13.73
2023-03-18T10:56:43.866Z,16.73
2023-03-18T10:58:46.324Z,11.48
2023-03-18T11:00:48.034Z,15.48
2023-03-18T11:02:49.802Z,12.35
2023-03-18T11:05:11.530Z,13.90
2023-03-18T11:07:19.676Z,13.73
2023-03-18T11:09:31.648Z,15.48
2023-03-18T11:11:39.465Z,12.38
2023-03-18T11:13:56.222Z,11.55
2023-03-18T11:15:58.680Z,11.55
2023-03-18T11:18:02.649Z,14.68
2023-03-18T11:20:17.336Z,12.15
2023-03-18T11:22:23.158Z,10.45
2023-03-18T11:24:36.468Z,12.98
2023-03-18T11:26:56.452Z,12.45
2023-03-18T11:31:07.080Z,14.98
2023-03-18T11:33:11.835Z,12.40
2023-03-18T11:35:23.471Z,13.80
2023-03-18T11:37:41.354Z,17.42
2023-03-18T11:39:54.644Z,10.88
2023-03-18T11:42:04.054Z,16.02
2023-03-18T11:44:08.588Z,13.35
2023-03-18T11:46:11.950Z,12.35
2023-03-18T11:48:38.168Z,12.98
2023-03-18T11:50:52.768Z,12.70
2023-03-18T11:53:07.702Z,15.05
2023-03-18T11:55:22.053Z,15.57
2023-03-18T11:57:35.609Z,12.77
2023-03-18T11:59:43.290Z,13.18
2023-03-18T12:02:10.003Z,15.07
2023-03-18T12:04:35.942Z,12.57
2023-03-18T12:06:57.041Z,12.60
2023-03-18T12:09:22.854Z,12.55
2023-03-18T12:11:25.532Z,13.57
2023-03-18T12:13:49.600Z,14.70
2023-03-18T12:15:59.723Z,11.68
2023-03-18T12:18:30.737Z,12.40
2023-03-18T12:20:53.331Z,14.15
2023-03-18T12:23:11.243Z,11.13
2023-03-18T12:25:37.085Z,11.52
2023-03-18T12:27:50.900Z,16.65
2023-03-18T12:30:30.065Z,10.43
2023-03-18T12:33:07.025Z,11.80
2023-03-18T12:35:26.178Z,11.65
2023-03-18T12:37:39.791Z,13.80
2023-03-18T12:39:52.213Z,12.40
2023-03-18T12:42:06.576Z,11.27
2023-03-18T12:44:21.407Z,10.73
2023-03-18T12:46:34.342Z,11.07
2023-03-18T12:48:44.502Z,11.23
2023-03-18T12:50:51.882Z,11.52
2023-03-18T12:53:00.189Z,10.52
2023-03-18T12:55:16.937Z,12.80
2023-03-18T12:57:36.114Z,10.40
2023-03-18T12:59:57.732Z,12.23
2023-03-18T13:02:31.609Z,11.05
2023-03-18T13:04:36.407Z,8.65
2023-03-18T13:06:42.018Z,13.50
2023-03-18T13:08:46.412Z,15.75
2023-03-18T13:11:04.812Z,17.05
2023-03-18T13:13:09.582Z,12.00
2023-03-18T13:15:40.482Z,10.50
2023-03-18T13:17:44.787Z,12.35
2023-03-18T13:19:46.895Z,10.60
2023-03-18T13:22:32.147Z,13.88
2023-03-18T13:24:43.298Z,12.68
2023-03-18T13:27:15.921Z,12.43
2023-03-18T13:29:54.339Z,28.55
2023-03-18T13:31:59.001Z,16.48
2023-03-18T13:34:12.665Z,20.95
2023-03-18T13:36:23.631Z,13.15
2023-03-18T13:38:43.254Z,14.82
2023-03-18T13:40:57.251Z,13.35
2023-03-18T13:43:01.445Z,18.83
2023-03-18T13:45:13.178Z,15.45
2023-03-18T13:47:18.910Z,11.52
2023-03-18T13:49:26.931Z,11.60
2023-03-18T13:51:29.037Z,12.13
2023-03-18T13:53:40.613Z,14.18
2023-03-18T13:55:49.906Z,11.40
2023-03-18T13:58:19.712Z,13.98
2023-03-18T14:00:41.980Z,13.38
2023-03-18T14:02:48.103Z,12.52
2023-03-18T14:04:51.827Z,13.68
2023-03-18T14:06:56.524Z,9.88
2023-03-18T14:08:59.081Z,11.00
2023-03-18T14:11:26.112Z,12.32
2023-03-18T14:13:28.421Z,10.27
2023-03-18T14:15:39.156Z,11.95
2023-03-18T14:17:47.934Z,10.75
2023-03-18T14:19:54.145Z,12.23
2023-03-18T14:22:39.391Z,16.05
2023-03-18T14:24:41.003Z,21.08
2023-03-18T14:26:47.085Z,18.23
2023-03-18T14:29:22.420Z,17.05
2023-03-18T14:31:58.254Z,29.58
2023-03-18T14:34:04.264Z,13.60
2023-03-18T14:36:10.293Z,9.07
2023-03-18T14:38:18.912Z,12.75
2023-03-18T14:40:21.397Z,10.45
2023-03-18T14:42:23.288Z,12.75
2023-03-18T14:44:35.175Z,14.60
2023-03-18T14:46:50.342Z,18.98
2023-03-18T14:48:54.075Z,34.50
2023-03-18T14:51:08.286Z,14.35
2023-03-18T14:53:13.801Z,17.85
2023-03-18T14:55:19.592Z,13.95
2023-03-18T14:57:25.733Z,23.45
2023-03-18T14:59:27.406Z,25.63
2023-03-18T15:01:40.064Z,26.42
2023-03-18T15:03:48.930Z,46.80
2023-03-18T15:05:55.079Z,26.08
2023-03-18T15:07:57.285Z,53.55
2023-03-18T15:10:02.743Z,63.47
2023-03-18T15:12:27.274Z,55.45
2023-03-18T15:14:31.840Z,56.55
2023-03-18T15:16:33.478Z,42.67
2023-03-18T15:18:38.791Z,34.28
2023-03-18T15:20:40.790Z,63.67
2023-03-18T15:22:43.632Z,86.68
2023-03-18T15:24:46.123Z,41.65
2023-03-18T15:27:00.488Z,32.78
2023-03-18T15:29:43.791Z,17.02
2023-03-18T15:31:46.056Z,24.48
2023-03-18T15:33:47.794Z,24.63
2023-03-18T15:36:03.577Z,35.72
2023-03-18T15:38:19.611Z,470.58
2023-03-18T15:40:24.711Z,35.40
2023-03-18T15:42:28.941Z,115.70
2023-03-18T15:44:35.821Z,144.15
2023-03-18T15:46:37.345Z,152.40
2023-03-18T15:48:54.889Z,210.52
2023-03-18T15:51:02.532Z,158.02
2023-03-18T15:53:20.683Z,101.70
2023-03-18T15:55:29.444Z,95.03
2023-03-18T15:57:36.400Z,379.27
2023-03-18T15:59:38.241Z,160.68
2023-03-18T16:01:40.400Z,139.65
2023-03-18T16:03:43.221Z,171.60
2023-03-18T16:05:44.976Z,293.13
2023-03-18T16:07:48.084Z,346.55
2023-03-18T16:09:51.574Z,235.43
2023-03-18T16:12:02.733Z,162.80
2023-03-18T16:14:04.926Z,195.52
2023-03-18T16:16:09.724Z,385.70
2023-03-18T16:18:11.605Z,192.45
2023-03-18T16:20:18.500Z,33.60
2023-03-18T16:22:20.025Z,247.98
2023-03-18T16:24:21.994Z,183.15
2023-03-18T16:26:23.943Z,334.00
2023-03-18T16:28:28.117Z,237.38
2023-03-18T16:30:31.816Z,209.10
2023-03-18T16:32:33.542Z,248.73
2023-03-18T16:34:35.409Z,740.50
2023-03-18T16:36:37.038Z,306.88
2023-03-18T16:38:41.104Z,120.63
2023-03-18T16:40:43.887Z,321.98
2023-03-18T16:42:47.937Z,329.65
2023-03-18T16:44:49.670Z,605.20
2023-03-18T16:46:57.565Z,368.33
2023-03-18T16:48:59.994Z,656.92
2023-03-18T16:51:02.975Z,285.92
2023-03-18T16:53:31.720Z,954.20
2023-03-18T16:55:34.674Z,736.05
2023-03-18T16:57:36.477Z,592.00
2023-03-18T16:59:38.433Z,598.45
2023-03-18T17:01:43.987Z,478.00
2023-03-18T17:03:45.725Z,518.53
2023-03-18T17:05:50.641Z,149.05
2023-03-18T17:07:52.199Z,87.72
2023-03-18T17:09:53.730Z,98.45
2023-03-18T17:12:03.005Z,125.97
2023-03-18T17:14:04.647Z,89.50
2023-03-18T17:16:15.729Z,193.07
2023-03-18T17:18:20.574Z,371.98
2023-03-18T17:20:22.248Z,362.50
2023-03-18T17:22:27.715Z,426.77
2023-03-18T17:24:29.231Z,209.82
2023-03-18T17:26:30.946Z,168.32
2023-03-18T17:28:39.213Z,613.35
2023-03-18T17:30:41.445Z,556.50
2023-03-18T17:32:43.056Z,204.20
2023-03-18T17:34:49.778Z,476.50
2023-03-18T17:36:51.370Z,384.27
2023-03-18T17:38:58.568Z,241.45
2023-03-18T17:41:02.096Z,380.83
2023-03-18T17:43:04.003Z,333.70
2023-03-18T17:45:17.788Z,260.05
2023-03-18T17:47:19.725Z,181.75
2023-03-18T17:49:25.119Z,158.57
2023-03-18T17:51:27.495Z,135.23
2023-03-18T17:53:35.283Z,99.05
2023-03-18T17:55:37.913Z,240.00
2023-03-18T17:57:39.564Z,214.88
2023-03-18T17:59:41.426Z,68.15
2023-03-18T18:01:45.319Z,192.88
2023-03-18T18:03:47.920Z,611.08
2023-03-18T18:05:49.980Z,303.45
2023-03-18T18:07:51.622Z,451.85
2023-03-18T18:09:53.218Z,266.65
2023-03-18T18:11:54.798Z,403.80
2023-03-18T18:14:03.485Z,442.92
2023-03-18T18:16:05.931Z,334.65
2023-03-18T18:18:24.639Z,287.40
2023-03-18T18:20:26.474Z,375.30
2023-03-18T18:22:28.064Z,303.52
2023-03-18T18:24:31.592Z,245.70
2023-03-18T18:26:33.310Z,220.85
2023-03-18T18:28:37.121Z,232.90
2023-03-18T18:30:38.639Z,251.77
2023-03-18T18:32:40.700Z,148.13
2023-03-18T18:34:42.305Z,135.32
2023-03-18T18:36:45.091Z,128.63
2023-03-18T18:38:46.611Z,117.82
2023-03-18T18:40:49.641Z,347.65
2023-03-18T18:42:51.168Z,148.55
2023-03-18T18:44:52.780Z,170.43
2023-03-18T18:46:54.540Z,201.50
2023-03-18T18:48:56.628Z,72.00
2023-03-18T18:50:59.465Z,54.53
2023-03-18T18:53:02.547Z,86.60
2023-03-18T18:55:04.574Z,49.53
2023-03-18T18:57:11.001Z,48.83
2023-03-18T18:59:22.295Z,78.22
2023-03-18T19:01:24.153Z,77.40
2023-03-18T19:03:31.192Z,77.30
2023-03-18T19:05:33.138Z,83.43
2023-03-18T19:07:36.448Z,105.15
2023-03-18T19:09:45.568Z,100.70
2023-03-18T19:11:47.685Z,101.25
2023-03-18T19:13:49.234Z,86.43
2023-03-18T19:15:54.272Z,123.05
2023-03-18T19:17:56.504Z,112.65
2023-03-18T19:19:58.464Z,93.60
2023-03-18T19:22:00.449Z,778.63
2023-03-18T19:24:02.285Z,314.83
2023-03-18T19:26:05.314Z,202.38
2023-03-18T19:28:07.693Z,169.45
2023-03-18T19:30:21.025Z,179.05
2023-03-18T19:32:23.405Z,337.67
2023-03-18T19:34:25.248Z,389.30
2023-03-18T19:36:30.359Z,214.07
2023-03-18T19:38:34.814Z,211.07
2023-03-18T19:40:36.510Z,222.63
2023-03-18T19:42:38.234Z,246.52
2023-03-18T19:44:39.798Z,596.83
2023-03-18T19:46:41.829Z,327.45
2023-03-18T19:48:43.403Z,263.15
2023-03-18T19:50:46.286Z,271.77
2023-03-18T19:52:48.112Z,292.27
2023-03-18T19:54:50.402Z,350.02
2023-03-18T19:56:52.590Z,316.95
2023-03-18T19:58:58.175Z,346.73
2023-03-18T20:01:01.793Z,348.55
2023-03-18T20:03:04.672Z,297.15
2023-03-18T20:05:16.537Z,229.40
2023-03-18T20:07:20.491Z,124.25
2023-03-18T20:09:25.076Z,122.97
2023-03-18T20:11:26.620Z,435.65
2023-03-18T20:13:28.210Z,212.85
2023-03-18T20:15:29.936Z,274.92
2023-03-18T20:17:41.165Z,508.35
2023-03-18T20:19:42.744Z,296.70
2023-03-18T20:21:44.812Z,275.30
2023-03-18T20:23:46.457Z,153.18
2023-03-18T20:25:51.280Z,153.65
2023-03-18T20:27:56.389Z,227.05
2023-03-18T20:29:58.481Z,147.35
2023-03-18T20:32:00.172Z,82.40
2023-03-18T20:34:02.026Z,86.53
2023-03-18T20:36:03.792Z,261.38
2023-03-18T20:38:22.273Z,358.58
2023-03-18T20:40:31.349Z,286.10
2023-03-18T20:42:33.240Z,260.20
2023-03-18T20:44:34.785Z,362.80
2023-03-18T20:46:36.384Z,406.25
2023-03-18T20:48:38.471Z,285.63
2023-03-18T20:50:41.084Z,184.73
2023-03-18T20:52:44.305Z,148.63
2023-03-18T20:54:45.815Z,200.20
2023-03-18T20:56:47.527Z,203.20
2023-03-18T20:58:49.875Z,140.52
2023-03-18T21:00:52.911Z,162.60
2023-03-18T21:02:57.627Z,124.30
2023-03-18T21:05:01.089Z,105.97
2023-03-18T21:07:02.677Z,90.68
2023-03-18T21:09:04.838Z,93.00
2023-03-18T21:11:06.636Z,79.35
2023-03-18T21:13:18.093Z,58.65
2023-03-18T21:15:22.708Z,66.53
2023-03-18T21:17:27.338Z,45.85
2023-03-18T21:19:28.958Z,60.92
2023-03-18T21:21:34.999Z,55.17
2023-03-18T21:23:36.742Z,51.70
2023-03-18T21:25:38.350Z,55.88
2023-03-18T21:27:40.197Z,56.45
2023-03-18T21:29:42.093Z,45.63
2023-03-18T21:31:43.640Z,72.18
2023-03-18T21:33:46.591Z,68.55
2023-03-18T21:35:50.366Z,55.10
2023-03-18T21:37:53.132Z,45.95
2023-03-18T21:39:54.796Z,54.50
2023-03-18T21:41:57.024Z,43.53
2023-03-18T21:43:58.719Z,43.70
2023-03-18T21:46:01.799Z,66.28
2023-03-18T21:48:03.638Z,52.35
2023-03-18T21:50:05.591Z,43.38
2023-03-18T21:52:08.197Z,51.13
2023-03-18T21:54:17.808Z,46.67
2023-03-18T21:58:24.244Z,41.92
2023-03-18T22:00:25.934Z,67.53
2023-03-18T22:02:31.638Z,43.55
2023-03-18T22:04:33.165Z,41.75
2023-03-18T22:06:34.711Z,44.95
2023-03-18T22:08:36.433Z,41.28
2023-03-18T22:10:38.361Z,42.45
2023-03-18T22:12:39.923Z,44.47
2023-03-18T22:14:41.532Z,47.75
2023-03-18T22:16:43.141Z,50.40
2023-03-18T22:18:46.470Z,90.82
2023-03-18T22:20:50.544Z,83.40
2023-03-18T22:22:52.170Z,68.75
2023-03-18T22:24:54.082Z,43.28
2023-03-18T22:26:55.631Z,49.85
2023-03-18T22:28:57.165Z,41.00
2023-03-18T22:31:00.332Z,51.58
2023-03-18T22:33:05.598Z,48.53
2023-03-18T22:35:21.907Z,41.85
2023-03-18T22:37:25.270Z,39.42
2023-03-18T22:39:26.949Z,42.45
2023-03-18T22:41:31.705Z,42.15
2023-03-18T22:43:37.387Z,47.67
2023-03-18T22:45:40.735Z,40.92
2023-03-18T22:47:42.378Z,49.08
2023-03-18T22:49:44.088Z,55.35
2023-03-18T22:51:45.800Z,54.38
2023-03-18T22:53:50.683Z,59.42
2023-03-18T22:55:54.446Z,54.35
2023-03-18T22:57:56.086Z,52.55
2023-03-18T22:59:58.377Z,61.55
2023-03-18T23:02:00.453Z,62.63
2023-03-18T23:04:02.018Z,59.63
2023-03-18T23:06:04.126Z,70.53
2023-03-18T23:08:06.202Z,60.67
2023-03-18T23:10:09.880Z,58.85
2023-03-18T23:12:11.995Z,59.17
2023-03-18T23:14:13.542Z,55.42
2023-03-18T23:16:18.548Z,51.55
2023-03-18T23:18:20.592Z,69.18
2023-03-18T23:20:22.094Z,58.03
2023-03-18T23:22:27.432Z,70.00
2023-03-18T23:24:28.952Z,66.78
2023-03-18T23:26:30.727Z,72.03
2023-03-18T23:28:40.964Z,66.07
2023-03-18T23:30:51.487Z,58.65
2023-03-18T23:32:53.024Z,61.42
2023-03-18T23:34:54.684Z,54.88
2023-03-18T23:36:56.520Z,62.22
2023-03-18T23:38:58.165Z,62.33
2023-03-18T23:40:59.680Z,62.95
2023-03-18T23:43:01.528Z,63.53
2023-03-18T23:45:04.146Z,62.70
2023-03-18T23:47:06.958Z,58.33
2023-03-18T23:49:08.508Z,66.28
2023-03-18T23:51:10.067Z,67.72
2023-03-18T23:53:13.317Z,68.88
2023-03-18T23:55:32.635Z,70.88
2023-03-18T23:57:34.948Z,88.20
2023-03-18T23:59:37.371Z,58.53
